Time;durP1;ratioP1;P1;durP2;ratioP2;P2;SDS_P1;SDS_P2;PMS_P1;PMS_P2;Temp;Humidity;BMP_temperature;BMP_pressure;BME280_temperature;BME280_humidity;BME280_pressure;Samples;Min_cycle;Max_cycle;Signal;HPM_P1;HPM_P2
2022/03/13 00:02:02;;;;;;;59.30;22.38;;;;;;;-148.23;100.00;61223.13;4965671;28;20027;-68
2022/03/13 00:04:27;;;;;;;50.25;23.08;;;;;;;-148.23;100.00;61223.13;4963097;28;20057;-68
2022/03/13 00:06:52;;;;;;;52.67;22.02;;;;;;;-148.23;100.00;61223.13;4967304;28;20030;-68
2022/03/13 00:09:21;;;;;;;51.30;23.85;;;;;;;-148.23;100.00;61223.13;4952420;28;20393;-68
2022/03/13 00:11:46;;;;;;;54.50;22.33;;;;;;;-148.23;100.00;61223.13;4951765;28;20027;-68
2022/03/13 00:14:13;;;;;;;55.00;20.45;;;;;;;-148.23;100.00;61223.13;4966838;28;20476;-68
2022/03/13 00:16:38;;;;;;;45.63;20.58;;;;;;;-148.23;100.00;61223.13;4982190;28;20041;-68
2022/03/13 00:19:06;;;;;;;57.30;21.85;;;;;;;-148.23;100.00;61223.13;4962646;28;20034;-68
2022/03/13 00:21:34;;;;;;;44.78;18.77;;;;;;;-148.23;100.00;61223.13;4966206;28;20085;-68
2022/03/13 00:23:59;;;;;;;47.25;18.30;;;;;;;-148.23;100.00;61223.13;4960760;28;20032;-68
2022/03/13 00:26:24;;;;;;;45.03;19.63;;;;;;;-148.23;100.00;61223.13;4980677;28;20035;-68
2022/03/13 00:28:50;;;;;;;45.70;17.15;;;;;;;-148.23;100.00;61223.13;4978975;28;20362;-68
2022/03/13 00:31:15;;;;;;;59.28;21.00;;;;;;;-148.23;100.00;61223.13;4977912;28;20484;-68
2022/03/13 00:33:41;;;;;;;43.45;18.92;;;;;;;-148.23;100.00;61223.13;4963220;28;20441;-68
2022/03/13 00:36:07;;;;;;;47.10;16.98;;;;;;;-148.23;100.00;61223.13;4981471;28;20094;-68
2022/03/13 00:38:32;;;;;;;46.40;17.60;;;;;;;-148.23;100.00;61223.13;4945065;28;20048;-68
2022/03/13 00:40:58;;;;;;;57.30;21.15;;;;;;;-148.23;100.00;61223.13;4963209;28;20106;-68
2022/03/13 00:43:25;;;;;;;49.38;20.85;;;;;;;-148.23;100.00;61223.13;4963269;28;20671;-68
2022/03/13 00:45:51;;;;;;;53.72;20.50;;;;;;;-148.23;100.00;61223.13;4979820;28;20481;-68
2022/03/13 00:48:17;;;;;;;50.90;21.50;;;;;;;-148.23;100.00;61223.13;4965122;28;20086;-68
2022/03/13 00:50:43;;;;;;;55.42;19.50;;;;;;;-148.23;100.00;61223.13;4961149;28;20232;-68
2022/03/13 00:53:08;;;;;;;58.10;24.33;;;;;;;-148.23;100.00;61223.13;4963997;28;20047;-68
2022/03/13 00:55:34;;;;;;;50.25;21.77;;;;;;;-148.23;100.00;61223.13;4975499;28;20061;-68
2022/03/13 00:57:59;;;;;;;61.67;24.63;;;;;;;-148.23;100.00;61223.13;4964634;28;20037;-68
2022/03/13 01:00:25;;;;;;;49.70;18.92;;;;;;;-148.23;100.00;61223.13;4977087;28;20038;-68
2022/03/13 01:02:51;;;;;;;51.75;21.55;;;;;;;-148.23;100.00;61223.13;4964071;28;20045;-68
2022/03/13 01:05:21;;;;;;;50.80;17.75;;;;;;;-148.23;100.00;61223.13;4978026;28;20035;-68
2022/03/13 01:07:47;;;;;;;59.45;24.08;;;;;;;-148.23;100.00;61223.13;4958826;28;20023;-68
2022/03/13 01:10:12;;;;;;;62.13;21.60;;;;;;;-148.23;100.00;61223.13;4962475;28;20089;-68
2022/03/13 01:12:37;;;;;;;53.67;24.42;;;;;;;-148.23;100.00;61223.13;4961336;28;20042;-68
2022/03/13 01:15:04;;;;;;;57.88;19.35;;;;;;;-148.23;100.00;61223.13;4961995;28;20102;-68
2022/03/13 01:17:29;;;;;;;61.55;20.55;;;;;;;-148.23;100.00;61223.13;4966968;28;20027;-68
2022/03/13 01:19:54;;;;;;;55.78;18.83;;;;;;;-148.23;100.00;61223.13;4981177;28;20041;-68
2022/03/13 01:22:20;;;;;;;55.17;21.50;;;;;;;-148.23;100.00;61223.13;4963229;28;20031;-68
2022/03/13 01:24:46;;;;;;;48.45;20.08;;;;;;;-148.23;100.00;61223.13;4946638;28;20572;-68
2022/03/13 01:27:13;;;;;;;55.00;22.48;;;;;;;-148.23;100.00;61223.13;4962153;28;20034;-68
2022/03/13 01:29:40;;;;;;;50.55;20.42;;;;;;;-148.23;100.00;61223.13;4977336;28;20067;-68
2022/03/13 01:32:09;;;;;;;53.72;19.10;;;;;;;-148.23;100.00;61223.13;4976716;28;20499;-68
2022/03/13 01:34:34;;;;;;;50.65;20.13;;;;;;;-148.23;100.00;61223.13;4961736;28;20031;-68
2022/03/13 01:37:00;;;;;;;50.78;19.95;;;;;;;-148.23;100.00;61223.13;4978670;28;20030;-68
2022/03/13 01:39:26;;;;;;;47.40;17.77;;;;;;;-148.23;100.00;61223.13;4981140;28;20067;-68
2022/03/13 01:41:51;;;;;;;45.22;19.65;;;;;;;-148.23;100.00;61223.13;4959357;28;20037;-68
2022/03/13 01:44:19;;;;;;;47.50;19.30;;;;;;;-148.23;100.00;61223.13;4963719;28;20268;-68
2022/03/13 01:46:44;;;;;;;52.53;18.55;;;;;;;-148.23;100.00;61223.13;4958149;28;20035;-68
2022/03/13 01:49:10;;;;;;;55.17;18.13;;;;;;;-148.23;100.00;61223.13;4975847;28;20059;-68
2022/03/13 01:51:35;;;;;;;51.30;20.58;;;;;;;-148.23;100.00;61223.13;4963026;28;20035;-68
2022/03/13 01:54:04;;;;;;;45.92;16.88;;;;;;;-148.23;100.00;61223.13;4947863;28;20485;-68
2022/03/13 01:56:31;;;;;;;46.67;16.95;;;;;;;-148.23;100.00;61223.13;4963490;28;20042;-69
2022/03/13 01:58:57;;;;;;;49.17;18.42;;;;;;;-148.23;100.00;61223.13;4963413;28;20850;-68
2022/03/13 02:01:25;;;;;;;52.08;18.05;;;;;;;-148.23;100.00;61223.13;4962256;28;20034;-68
2022/03/13 02:03:51;;;;;;;47.85;17.45;;;;;;;-148.23;100.00;61223.13;4977311;28;20026;-68
2022/03/13 02:06:17;;;;;;;48.35;18.15;;;;;;;-148.23;100.00;61223.13;4978343;28;20469;-68
2022/03/13 02:08:44;;;;;;;52.17;19.45;;;;;;;-148.23;100.00;61223.13;4978090;28;20623;-68
2022/03/13 02:11:09;;;;;;;56.10;21.10;;;;;;;-148.23;100.00;61223.13;4960921;28;20042;-68
2022/03/13 02:13:36;;;;;;;53.80;19.98;;;;;;;-148.23;100.00;61223.13;4962934;28;20081;-68
2022/03/13 02:16:02;;;;;;;50.70;17.98;;;;;;;-148.23;100.00;61223.13;4962031;28;20030;-68
2022/03/13 02:18:27;;;;;;;58.20;21.45;;;;;;;-148.23;100.00;61223.13;4977696;28;20078;-68
2022/03/13 02:20:53;;;;;;;65.03;23.92;;;;;;;-148.23;100.00;61223.13;4961093;28;20110;-68
2022/03/13 02:23:22;;;;;;;58.38;19.98;;;;;;;-148.23;100.00;61223.13;4959281;28;20038;-68
2022/03/13 02:25:49;;;;;;;56.55;19.48;;;;;;;-148.23;100.00;61223.13;4960048;28;20031;-68
2022/03/13 02:28:19;;;;;;;54.92;20.10;;;;;;;-148.23;100.00;61223.13;4962585;28;20029;-68
2022/03/13 02:30:44;;;;;;;51.25;17.40;;;;;;;-148.23;100.00;61223.13;4961489;28;20147;-68
2022/03/13 02:33:10;;;;;;;55.05;19.55;;;;;;;-148.23;100.00;61223.13;4977305;28;20034;-68
2022/03/13 02:35:35;;;;;;;59.20;21.55;;;;;;;-148.23;100.00;61223.13;4947094;28;20039;-68
2022/03/13 02:38:00;;;;;;;58.10;19.45;;;;;;;-148.23;100.00;61223.13;4964272;28;20047;-68
2022/03/13 02:40:26;;;;;;;54.10;19.17;;;;;;;-148.23;100.00;61223.13;4964847;28;20517;-68
2022/03/13 02:42:52;;;;;;;57.58;19.30;;;;;;;-148.23;100.00;61223.13;4959979;28;20031;-68
2022/03/13 02:45:34;;;;;;;49.95;18.08;;;;;;;-148.23;100.00;61223.13;4977407;28;20045;-68
2022/03/13 02:48:04;;;;;;;54.45;21.15;;;;;;;-148.23;100.00;61223.13;4961915;28;20048;-68
2022/03/13 02:50:30;;;;;;;60.28;21.20;;;;;;;-148.23;100.00;61223.13;4958991;28;20023;-68
2022/03/13 02:52:56;;;;;;;60.58;20.13;;;;;;;-148.23;100.00;61223.13;4962992;28;20042;-68
2022/03/13 02:55:21;;;;;;;54.80;20.02;;;;;;;-148.23;100.00;61223.13;4977147;28;20452;-68
2022/03/13 02:57:47;;;;;;;52.13;18.10;;;;;;;-148.23;100.00;61223.13;4961551;28;20031;-68
2022/03/13 03:00:14;;;;;;;56.72;21.10;;;;;;;-148.23;100.00;61223.13;4946293;28;20050;-68
2022/03/13 03:02:40;;;;;;;58.55;21.73;;;;;;;-148.23;100.00;61223.13;4959361;28;20469;-68
2022/03/13 03:05:06;;;;;;;60.10;22.20;;;;;;;-148.23;100.00;61223.13;4960696;28;20285;-68
2022/03/13 03:07:32;;;;;;;65.43;22.77;;;;;;;-148.23;100.00;61223.13;4957758;28;20105;-68
2022/03/13 03:09:58;;;;;;;60.60;21.08;;;;;;;-148.23;100.00;61223.13;4958950;28;20031;-68
2022/03/13 03:12:23;;;;;;;62.33;21.95;;;;;;;-148.23;100.00;61223.13;4946699;28;20026;-68
2022/03/13 03:14:49;;;;;;;55.60;20.75;;;;;;;-148.23;100.00;61223.13;4968454;28;20053;-68
2022/03/13 03:17:15;;;;;;;51.95;19.02;;;;;;;-148.23;100.00;61223.13;4960795;28;20129;-68
2022/03/13 03:19:40;;;;;;;64.03;21.50;;;;;;;-148.23;100.00;61223.13;4947395;28;20038;-68
2022/03/13 03:22:05;;;;;;;58.47;20.63;;;;;;;-148.23;100.00;61223.13;4961119;28;20023;-68
2022/03/13 03:24:30;;;;;;;58.72;20.80;;;;;;;-148.23;100.00;61223.13;4963798;28;20031;-68
2022/03/13 03:26:56;;;;;;;46.72;17.92;;;;;;;-148.23;100.00;61223.13;4981250;28;20122;-68
2022/03/13 03:29:24;;;;;;;55.75;20.48;;;;;;;-148.23;100.00;61223.13;4946863;28;20031;-68
2022/03/13 03:31:50;;;;;;;57.38;19.45;;;;;;;-148.23;100.00;61223.13;4978194;28;20030;-68
2022/03/13 03:34:18;;;;;;;57.28;19.60;;;;;;;-148.23;100.00;61223.13;4962104;28;20026;-68
2022/03/13 03:36:49;;;;;;;60.33;22.20;;;;;;;-148.23;100.00;61223.13;4962002;28;20046;-68
2022/03/13 03:39:17;;;;;;;61.20;21.13;;;;;;;-148.23;100.00;61223.13;4964801;28;20031;-68
2022/03/13 03:41:47;;;;;;;73.93;30.55;;;;;;;-148.23;100.00;61223.13;4962192;28;20481;-68
2022/03/13 03:44:13;;;;;;;69.30;26.77;;;;;;;-148.23;100.00;61223.13;4968045;28;20129;-68
2022/03/13 03:46:40;;;;;;;78.18;29.60;;;;;;;-148.23;100.00;61223.13;4957534;28;20038;-68
2022/03/13 03:49:05;;;;;;;76.45;30.15;;;;;;;-148.23;100.00;61223.13;4966252;28;20056;-68
2022/03/13 03:51:30;;;;;;;69.50;24.10;;;;;;;-148.23;100.00;61223.13;4980531;28;20154;-68
2022/03/13 03:53:56;;;;;;;82.00;32.47;;;;;;;-148.23;100.00;61223.13;4961988;28;20383;-68
2022/03/13 03:56:21;;;;;;;75.32;28.00;;;;;;;-148.23;100.00;61223.13;4969180;28;20483;-68
2022/03/13 03:58:48;;;;;;;83.15;29.70;;;;;;;-148.23;100.00;61223.13;4961717;28;20040;-68
2022/03/13 04:01:14;;;;;;;56.60;22.30;;;;;;;-148.23;100.00;61223.13;4966195;28;20061;-68
2022/03/13 04:03:39;;;;;;;81.28;27.02;;;;;;;-148.23;100.00;61223.13;4963576;28;20126;-68
2022/03/13 04:06:04;;;;;;;84.20;31.33;;;;;;;-148.23;100.00;61223.13;4966711;28;20035;-68
2022/03/13 04:08:30;;;;;;;71.55;27.73;;;;;;;-148.23;100.00;61223.13;4960750;28;20474;-68
2022/03/13 04:10:55;;;;;;;71.72;25.35;;;;;;;-148.23;100.00;61223.13;4976530;28;20042;-68
2022/03/13 04:13:20;;;;;;;69.40;25.90;;;;;;;-148.23;100.00;61223.13;4966003;28;20458;-68
2022/03/13 04:15:46;;;;;;;75.15;26.52;;;;;;;-148.23;100.00;61223.13;4964154;28;20069;-68
2022/03/13 04:18:11;;;;;;;72.13;26.45;;;;;;;-148.23;100.00;61223.13;4970520;28;20350;-68
2022/03/13 04:20:37;;;;;;;79.38;28.90;;;;;;;-148.23;100.00;61223.13;4968725;28;20090;-68
2022/03/13 04:23:02;;;;;;;73.00;24.73;;;;;;;-148.23;100.00;61223.13;4969830;28;20035;-68
2022/03/13 04:25:28;;;;;;;67.97;25.75;;;;;;;-148.23;100.00;61223.13;4968838;28;20038;-68
2022/03/13 04:27:54;;;;;;;63.67;23.20;;;;;;;-148.23;100.00;61223.13;4967893;28;20023;-68
2022/03/13 04:30:20;;;;;;;78.15;29.60;;;;;;;-148.23;100.00;61223.13;4971708;28;20045;-68
2022/03/13 04:32:47;;;;;;;75.28;26.75;;;;;;;-148.23;100.00;61223.13;4967605;28;20035;-68
2022/03/13 04:35:12;;;;;;;66.88;24.90;;;;;;;-148.23;100.00;61223.13;4968442;28;20540;-68
2022/03/13 04:37:37;;;;;;;68.55;26.63;;;;;;;-148.23;100.00;61223.13;4968722;28;20162;-68
2022/03/13 04:40:03;;;;;;;84.43;34.47;;;;;;;-148.23;100.00;61223.13;4966152;28;20030;-67
2022/03/13 04:42:28;;;;;;;78.47;28.58;;;;;;;-148.23;100.00;61223.13;4966376;28;20038;-68
2022/03/13 04:44:54;;;;;;;76.45;25.77;;;;;;;-148.23;100.00;61223.13;4962630;28;20466;-68
2022/03/13 04:47:19;;;;;;;74.80;28.52;;;;;;;-148.23;100.00;61223.13;4964736;28;20118;-68
2022/03/13 04:49:44;;;;;;;71.40;24.92;;;;;;;-148.23;100.00;61223.13;4966747;28;20074;-68
2022/03/13 04:52:10;;;;;;;82.47;21.67;;;;;;;-148.23;100.00;61223.13;4968787;28;20030;-68
2022/03/13 04:54:35;;;;;;;69.18;26.45;;;;;;;-148.23;100.00;61223.13;4965866;28;20019;-68
2022/03/13 04:57:00;;;;;;;77.78;31.10;;;;;;;-148.23;100.00;61223.13;4962969;28;20106;-68
2022/03/13 04:59:26;;;;;;;75.47;31.30;;;;;;;-148.23;100.00;61223.13;4964938;28;20038;-68
2022/03/13 05:01:52;;;;;;;76.82;27.50;;;;;;;-148.23;100.00;61223.13;4967289;28;20030;-67
2022/03/13 05:04:17;;;;;;;78.13;30.05;;;;;;;-148.23;100.00;61223.13;4982539;28;20075;-68
2022/03/13 05:06:45;;;;;;;63.17;25.38;;;;;;;-148.23;100.00;61223.13;4953200;28;20022;-68
2022/03/13 05:09:11;;;;;;;69.43;23.67;;;;;;;-148.23;100.00;61223.13;4962917;28;20051;-68
2022/03/13 05:11:38;;;;;;;77.70;24.85;;;;;;;-148.23;100.00;61223.13;4966892;28;20027;-68
2022/03/13 05:14:04;;;;;;;76.25;28.00;;;;;;;-148.23;100.00;61223.13;4982693;28;20023;-68
2022/03/13 05:16:29;;;;;;;75.63;27.88;;;;;;;-148.23;100.00;61223.13;4969476;28;20033;-68
2022/03/13 05:18:55;;;;;;;76.93;25.58;;;;;;;-148.23;100.00;61223.13;4965577;28;20114;-68
2022/03/13 05:21:20;;;;;;;68.80;25.10;;;;;;;-148.23;100.00;61223.13;4964352;28;20030;-68
2022/03/13 05:23:45;;;;;;;71.43;25.15;;;;;;;-148.23;100.00;61223.13;4966543;28;20409;-68
2022/03/13 05:26:11;;;;;;;67.78;26.90;;;;;;;-148.23;100.00;61223.13;4948114;28;20034;-68
2022/03/13 05:28:36;;;;;;;79.35;32.85;;;;;;;-148.23;100.00;61223.13;4968502;28;20058;-68
2022/03/13 05:31:02;;;;;;;74.93;31.67;;;;;;;-148.23;100.00;61223.13;4951631;28;20058;-68
2022/03/13 05:33:28;;;;;;;78.80;27.52;;;;;;;-148.23;100.00;61223.13;4945067;28;20023;-68
2022/03/13 05:35:53;;;;;;;78.60;24.38;;;;;;;-148.23;100.00;61223.13;4957316;28;20359;-68
2022/03/13 05:38:18;;;;;;;75.82;26.85;;;;;;;-148.23;100.00;61223.13;4967830;28;20039;-68
2022/03/13 05:40:44;;;;;;;72.93;26.60;;;;;;;-148.23;100.00;61223.13;4965604;28;20019;-68
2022/03/13 05:43:11;;;;;;;65.10;23.73;;;;;;;-148.23;100.00;61223.13;4982304;28;20023;-68
2022/03/13 05:45:38;;;;;;;65.18;23.90;;;;;;;-148.23;100.00;61223.13;4980601;28;20441;-68
2022/03/13 05:48:09;;;;;;;72.45;24.88;;;;;;;-148.23;100.00;61223.13;4961842;28;20358;-68
2022/03/13 05:50:34;;;;;;;72.78;23.13;;;;;;;-148.23;100.00;61223.13;4966159;28;20031;-68
2022/03/13 05:53:00;;;;;;;80.88;25.90;;;;;;;-148.23;100.00;61223.13;4949526;28;20058;-68
2022/03/13 05:55:26;;;;;;;78.70;24.45;;;;;;;-148.23;100.00;61223.13;4964923;28;20030;-68
2022/03/13 05:57:53;;;;;;;65.63;22.45;;;;;;;-148.23;100.00;61223.13;4960517;28;20130;-68
2022/03/13 06:00:21;;;;;;;74.28;26.65;;;;;;;-148.23;100.00;61223.13;4963703;28;20030;-68
2022/03/13 06:02:47;;;;;;;76.28;25.92;;;;;;;-148.23;100.00;61223.13;4962323;28;20026;-68
2022/03/13 06:05:16;;;;;;;62.83;23.73;;;;;;;-148.23;100.00;61223.13;4964133;28;20037;-68
2022/03/13 06:07:41;;;;;;;79.80;24.83;;;;;;;-148.23;100.00;61223.13;4963364;28;20038;-68
2022/03/13 06:10:08;;;;;;;67.88;24.02;;;;;;;-148.23;100.00;61223.13;4963083;28;20026;-68
2022/03/13 06:12:35;;;;;;;71.63;26.60;;;;;;;-148.23;100.00;61223.13;4962607;28;20034;-68
2022/03/13 06:15:00;;;;;;;74.53;26.25;;;;;;;-148.23;100.00;61223.13;4946075;28;20035;-68
2022/03/13 06:17:26;;;;;;;71.78;23.50;;;;;;;-148.23;100.00;61223.13;4964390;28;20567;-68
2022/03/13 06:19:55;;;;;;;75.15;24.42;;;;;;;-148.23;100.00;61223.13;4956542;28;20034;-68
2022/03/13 06:22:21;;;;;;;74.05;23.95;;;;;;;-148.23;100.00;61223.13;4964654;28;20031;-68
2022/03/13 06:24:46;;;;;;;74.10;24.85;;;;;;;-148.23;100.00;61223.13;4979634;28;20030;-68
2022/03/13 06:27:12;;;;;;;72.82;24.52;;;;;;;-148.23;100.00;61223.13;4958071;28;20343;-68
2022/03/13 06:29:38;;;;;;;66.93;23.77;;;;;;;-148.23;100.00;61223.13;4962483;28;20040;-68
2022/03/13 06:32:03;;;;;;;76.13;23.92;;;;;;;-148.23;100.00;61223.13;4961356;28;20397;-68
2022/03/13 06:34:29;;;;;;;68.75;23.60;;;;;;;-148.23;100.00;61223.13;4961860;28;20118;-68
2022/03/13 06:36:54;;;;;;;69.75;24.10;;;;;;;-148.23;100.00;61223.13;4978159;28;20457;-68
2022/03/13 06:39:20;;;;;;;71.80;23.80;;;;;;;-148.23;100.00;61223.13;4948533;28;20387;-68
2022/03/13 06:41:45;;;;;;;69.43;24.13;;;;;;;-148.23;100.00;61223.13;4961596;28;20398;-68
2022/03/13 06:44:10;;;;;;;70.10;23.67;;;;;;;-148.23;100.00;61223.13;4963641;28;20062;-68
2022/03/13 06:46:35;;;;;;;66.15;22.38;;;;;;;-148.23;100.00;61223.13;4956587;28;20034;-68
2022/03/13 06:49:03;;;;;;;65.07;21.98;;;;;;;-148.23;100.00;61223.13;4962458;28;20062;-68
2022/03/13 06:51:28;;;;;;;74.28;24.45;;;;;;;-148.23;100.00;61223.13;4966556;28;20033;-68
2022/03/13 06:53:54;;;;;;;72.60;29.67;;;;;;;-148.23;100.00;61223.13;4964437;28;20023;-68
2022/03/13 06:56:19;;;;;;;78.10;27.23;;;;;;;-148.23;100.00;61223.13;4961063;28;20077;-68
2022/03/13 06:58:44;;;;;;;73.35;25.95;;;;;;;-148.23;100.00;61223.13;4961287;28;20038;-68
2022/03/13 07:01:10;;;;;;;73.25;24.23;;;;;;;-148.23;100.00;61223.13;4962567;28;20031;-68
2022/03/13 07:03:36;;;;;;;72.85;24.23;;;;;;;-148.23;100.00;61223.13;4959684;28;20041;-68
2022/03/13 07:06:04;;;;;;;72.80;22.98;;;;;;;-148.23;100.00;61223.13;4960131;28;20102;-68
2022/03/13 07:08:32;;;;;;;77.72;24.10;;;;;;;-148.23;100.00;61223.13;4962421;28;20027;-68
2022/03/13 07:10:58;;;;;;;64.85;23.55;;;;;;;-148.23;100.00;61223.13;4976209;28;20035;-68
2022/03/13 07:13:24;;;;;;;66.63;23.00;;;;;;;-148.23;100.00;61223.13;4963348;28;20452;-68
2022/03/13 07:15:51;;;;;;;58.47;22.10;;;;;;;-148.23;100.00;61223.13;4974246;28;20465;-69
2022/03/13 07:18:17;;;;;;;68.18;23.30;;;;;;;-148.23;100.00;61223.13;4964730;28;20497;-68
2022/03/13 07:20:42;;;;;;;67.60;22.80;;;;;;;-148.23;100.00;61223.13;4965690;28;20042;-68
2022/03/13 07:23:08;;;;;;;64.88;22.65;;;;;;;-148.23;100.00;61223.13;4981944;28;20073;-68
2022/03/13 07:25:33;;;;;;;61.90;22.48;;;;;;;-148.23;100.00;61223.13;4964975;28;20113;-68
2022/03/13 07:27:58;;;;;;;75.38;24.38;;;;;;;-148.23;100.00;61223.13;4964575;28;20146;-68
2022/03/13 07:30:24;;;;;;;60.03;22.80;;;;;;;-148.23;100.00;61223.13;4965230;28;20126;-68
2022/03/13 07:32:49;;;;;;;70.28;23.00;;;;;;;-148.23;100.00;61223.13;4964024;28;20393;-68
2022/03/13 07:35:14;;;;;;;62.72;22.05;;;;;;;-148.23;100.00;61223.13;4964821;28;20367;-68
2022/03/13 07:37:40;;;;;;;66.60;22.17;;;;;;;-148.23;100.00;61223.13;4963916;28;20039;-68
2022/03/13 07:40:05;;;;;;;69.75;23.17;;;;;;;-148.23;100.00;61223.13;4965294;28;20073;-68
2022/03/13 07:42:31;;;;;;;68.80;24.02;;;;;;;-148.23;100.00;61223.13;4964985;28;20785;-69
2022/03/13 07:44:56;;;;;;;71.13;22.77;;;;;;;-148.23;100.00;61223.13;4963102;28;20069;-68
2022/03/13 07:47:22;;;;;;;61.78;21.08;;;;;;;-148.23;100.00;61223.13;4945727;28;20805;-68
2022/03/13 07:49:47;;;;;;;67.13;22.02;;;;;;;-148.23;100.00;61223.13;4958281;28;20130;-68
2022/03/13 07:52:13;;;;;;;63.95;21.67;;;;;;;-148.23;100.00;61223.13;4978882;28;20053;-68
2022/03/13 07:54:38;;;;;;;71.53;23.05;;;;;;;-148.23;100.00;61223.13;4961696;28;20145;-67
2022/03/13 07:57:04;;;;;;;74.82;23.13;;;;;;;-148.23;100.00;61223.13;4960484;28;20031;-68
2022/03/13 07:59:29;;;;;;;73.35;21.13;;;;;;;-148.23;100.00;61223.13;4962690;28;20038;-68
2022/03/13 08:01:54;;;;;;;74.28;25.13;;;;;;;-148.23;100.00;61223.13;4977099;28;20035;-68
2022/03/13 08:04:19;;;;;;;72.25;23.60;;;;;;;-148.23;100.00;61223.13;4945647;28;20031;-68
2022/03/13 08:06:45;;;;;;;73.82;26.95;;;;;;;-148.23;100.00;61223.13;4961200;28;20035;-68
2022/03/13 08:09:10;;;;;;;67.20;22.17;;;;;;;-148.23;100.00;61223.13;4943889;28;20026;-68
2022/03/13 08:11:38;;;;;;;64.32;23.38;;;;;;;-148.23;100.00;61223.13;4960918;28;20386;-68
2022/03/13 08:14:03;;;;;;;69.35;23.90;;;;;;;-148.23;100.00;61223.13;4961655;28;20409;-68
2022/03/13 08:16:29;;;;;;;69.80;22.15;;;;;;;-148.23;100.00;61223.13;4962589;28;20689;-68
2022/03/13 08:18:54;;;;;;;70.63;23.40;;;;;;;-148.23;100.00;61223.13;4959959;28;20246;-68
2022/03/13 08:21:19;;;;;;;74.95;25.35;;;;;;;-148.23;100.00;61223.13;4976431;28;20089;-68
2022/03/13 08:23:45;;;;;;;70.05;22.85;;;;;;;-148.23;100.00;61223.13;4943600;28;20138;-68
2022/03/13 08:26:12;;;;;;;72.63;22.85;;;;;;;-148.23;100.00;61223.13;4961182;28;20031;-68
2022/03/13 08:28:38;;;;;;;76.65;26.40;;;;;;;-148.23;100.00;61223.13;4961596;28;20026;-68
2022/03/13 08:31:03;;;;;;;75.25;25.35;;;;;;;-148.23;100.00;61223.13;4976194;28;20201;-68
2022/03/13 08:33:29;;;;;;;71.28;22.63;;;;;;;-148.23;100.00;61223.13;4959589;28;20031;-68
2022/03/13 08:35:54;;;;;;;66.38;22.73;;;;;;;-148.23;100.00;61223.13;4976400;28;20034;-68
2022/03/13 08:38:20;;;;;;;77.50;24.83;;;;;;;-148.23;100.00;61223.13;4961462;28;20035;-68
2022/03/13 08:40:46;;;;;;;68.03;24.10;;;;;;;-148.23;100.00;61223.13;4946535;28;20110;-69
2022/03/13 08:43:12;;;;;;;73.32;22.98;;;;;;;-148.23;100.00;61223.13;4961679;28;20409;-69
2022/03/13 08:45:37;;;;;;;79.63;26.63;;;;;;;-148.23;100.00;61223.13;4976246;28;20046;-69
2022/03/13 08:48:03;;;;;;;75.90;24.73;;;;;;;-148.23;100.00;61223.13;4960789;28;20086;-69
2022/03/13 08:50:29;;;;;;;69.32;23.23;;;;;;;-148.23;100.00;61223.13;4962197;28;20027;-69
2022/03/13 08:52:56;;;;;;;75.65;24.48;;;;;;;-148.23;100.00;61223.13;4961482;28;20035;-69
2022/03/13 08:55:22;;;;;;;65.85;23.85;;;;;;;-148.23;100.00;61223.13;4962731;28;20137;-69
2022/03/13 08:57:47;;;;;;;76.50;23.73;;;;;;;-148.23;100.00;61223.13;4973943;28;20035;-69
2022/03/13 09:00:15;;;;;;;75.43;25.88;;;;;;;-148.23;100.00;61223.13;4958154;28;20709;-68
2022/03/13 09:02:41;;;;;;;66.82;23.77;;;;;;;-148.23;100.00;61223.13;4961424;28;20035;-69
2022/03/13 09:05:07;;;;;;;63.55;23.33;;;;;;;-148.23;100.00;61223.13;4962126;28;20041;-69
2022/03/13 09:07:32;;;;;;;67.85;22.77;;;;;;;-148.23;100.00;61223.13;4962418;28;20030;-69
2022/03/13 09:09:58;;;;;;;73.82;23.67;;;;;;;-148.23;100.00;61223.13;4960448;28;20038;-69
2022/03/13 09:12:24;;;;;;;59.58;21.55;;;;;;;-148.23;100.00;61223.13;4941936;28;20093;-70
2022/03/13 09:14:49;;;;;;;70.38;22.00;;;;;;;-148.23;100.00;61223.13;4960127;28;20031;-68
2022/03/13 09:17:17;;;;;;;78.45;30.45;;;;;;;-148.23;100.00;61223.13;4961568;28;20030;-69
2022/03/13 09:19:42;;;;;;;77.60;25.67;;;;;;;-148.23;100.00;61223.13;4961845;28;20050;-68
2022/03/13 09:22:08;;;;;;;66.20;21.77;;;;;;;-148.23;100.00;61223.13;4959148;28;20030;-68
2022/03/13 09:24:33;;;;;;;71.38;26.10;;;;;;;-148.23;100.00;61223.13;4961709;28;20427;-68
2022/03/13 09:26:58;;;;;;;78.97;24.13;;;;;;;-148.23;100.00;61223.13;4961157;28;20030;-68
2022/03/13 09:29:24;;;;;;;69.57;24.50;;;;;;;-148.23;100.00;61223.13;4960683;28;20037;-68
2022/03/13 09:31:49;;;;;;;70.38;22.80;;;;;;;-148.23;100.00;61223.13;4960830;28;20062;-68
2022/03/13 09:34:14;;;;;;;71.13;22.52;;;;;;;-148.23;100.00;61223.13;4962501;28;20113;-68
2022/03/13 09:36:42;;;;;;;75.32;24.33;;;;;;;-148.23;100.00;61223.13;4962876;28;20035;-68
2022/03/13 09:39:07;;;;;;;68.25;24.95;;;;;;;-148.23;100.00;61223.13;4964602;28;20484;-69
2022/03/13 09:41:33;;;;;;;63.63;21.38;;;;;;;-148.23;100.00;61223.13;4962685;28;20034;-70
2022/03/13 09:43:59;;;;;;;76.95;26.90;;;;;;;-148.23;100.00;61223.13;4958937;28;20035;-69
2022/03/13 09:46:24;;;;;;;70.93;25.60;;;;;;;-148.23;100.00;61223.13;4961304;28;20043;-69
2022/03/13 09:48:51;;;;;;;75.70;27.65;;;;;;;-148.23;100.00;61223.13;4959753;28;20034;-69
2022/03/13 09:51:16;;;;;;;70.65;24.65;;;;;;;-148.23;100.00;61223.13;4961607;28;20039;-69
2022/03/13 09:53:42;;;;;;;80.40;27.02;;;;;;;-148.23;100.00;61223.13;4959617;28;20037;-69
2022/03/13 09:56:07;;;;;;;73.22;26.13;;;;;;;-148.23;100.00;61223.13;4957394;28;20050;-70
2022/03/13 09:58:34;;;;;;;70.88;26.30;;;;;;;-148.23;100.00;61223.13;4961287;28;20457;-69
2022/03/13 10:01:00;;;;;;;67.35;23.42;;;;;;;-148.23;100.00;61223.13;4960368;28;20696;-69
2022/03/13 10:03:25;;;;;;;68.18;25.23;;;;;;;-148.23;100.00;61223.13;4960938;28;20524;-69
2022/03/13 10:05:53;;;;;;;82.95;32.70;;;;;;;-148.23;100.00;61223.13;4960409;28;20046;-70
2022/03/13 10:08:18;;;;;;;79.47;27.70;;;;;;;-148.23;100.00;61223.13;4960246;28;20397;-69
2022/03/13 10:10:45;;;;;;;81.72;27.15;;;;;;;-148.23;100.00;61223.13;4960618;28;20034;-69
2022/03/13 10:13:15;;;;;;;73.57;27.05;;;;;;;-148.23;100.00;61223.13;4955913;28;20473;-69
2022/03/13 10:15:48;;;;;;;87.18;32.47;;;;;;;-148.23;100.00;61223.13;4957086;28;20054;-69
2022/03/13 10:18:21;;;;;;;78.57;27.30;;;;;;;-148.23;100.00;61223.13;4958471;28;20023;-69
2022/03/13 10:20:47;;;;;;;70.72;26.15;;;;;;;-148.23;100.00;61223.13;4955579;28;20050;-69
2022/03/13 10:23:17;;;;;;;74.65;26.77;;;;;;;-148.23;100.00;61223.13;4960453;28;20041;-69
2022/03/13 10:25:43;;;;;;;78.25;30.63;;;;;;;-148.23;100.00;61223.13;4959462;28;20140;-69
2022/03/13 10:28:16;;;;;;;86.60;38.15;;;;;;;-148.23;100.00;61223.13;4961965;28;20042;-69
2022/03/13 10:30:42;;;;;;;77.25;27.63;;;;;;;-148.23;100.00;61223.13;4959779;28;20037;-69
2022/03/13 10:33:08;;;;;;;75.38;27.50;;;;;;;-148.23;100.00;61223.13;4958377;28;20030;-69
2022/03/13 10:35:37;;;;;;;81.50;35.22;;;;;;;-148.23;100.00;61223.13;4943235;28;20030;-69
2022/03/13 10:38:23;;;;;;;86.63;29.25;;;;;;;-148.23;100.00;61223.13;4961360;28;20116;-69
2022/03/13 10:40:57;;;;;;;81.60;34.33;;;;;;;-148.23;100.00;61223.13;4957981;28;20035;-69
2022/03/13 10:43:26;;;;;;;82.70;28.88;;;;;;;-148.23;100.00;61223.13;4957804;28;20035;-69
2022/03/13 10:45:53;;;;;;;79.82;27.08;;;;;;;-148.23;100.00;61223.13;4960487;28;20030;-69
2022/03/13 10:48:27;;;;;;;76.38;28.50;;;;;;;-148.23;100.00;61223.13;4958292;28;20050;-68
2022/03/13 10:50:53;;;;;;;74.82;27.48;;;;;;;-148.23;100.00;61223.13;4958092;28;20114;-69